Aérodrome :
LOGIN :

S'inscrire | Disclaimer

   EN    FR    IT 

 










Légende :    VFR   VFR Marginal   IFR   IFR Intensif   IFR Très Intensif
Visi : 
Plafond : 
>= 8 km
>= 3000ft
5 à 8 km
1000 à 3000 ft
1500m à 5 km
500 à 1000 ft
800 à 1500m
200 à 500 ft
< 800m
< 200 ft
Symboles :   Orages  Brouillard  Fortes neiges  Fortes précipitations  Vent > 20 kt
SIGMETs :   Divers  Orages  Givrage  Turbulence  Onde Orograph.  Cendres Volcan.






- Altitude de l'aérodrome : 46 ft
- Code IATA : GPA


LGRX - Araxos

DERNIER METAR :
  • 112150Z 06012KT 9999 FEW025 13/10 Q1005 RMK FEW080 SCT180 BLU

METARs EXPIRÉS :
  • 112050Z 06009KT 9999 FEW025 13/10 Q1005 RMK FEW080 SCT180 BLU
  • 111950Z 06009KT 9999 FEW025 SCT080 13/11 Q1005

TAF TAF LGRX
Valide du 11 à 21h jusqu'au 12 à 06h UTC


112000Z 1121/1206 08006KT 9999 SCT020 SCT080
BECMG 1200/1202 FEW025



MET'MAP, la Météo Aéronautique d'un coup d'oeil ! - Copyright ORBIFLY Décembre 2007 - Disclaimer

ORBIFLY MET'MAP TEAM :

Programmation & Développement : Alexandra Zaïnal
Sur une idée originale de : Baudouin d'Aumeries
Assistance à la programmation : Marc-Olivier Méhu
Soutien technique & logistique : Manuel Goepfert

Contact : metmap@orbifly.com




SOURCES & CREDITS :

   NOAA